sensor_id;sensor_type;location;lat;lon;timestamp;P1;durP1;ratioP1;P2;durP2;ratioP2
8359;SDS011;4217;48.762;11.428;2022-12-18T00:05:08;50.93;;;37.50;;
8359;SDS011;4217;48.762;11.428;2022-12-18T00:15:10;50.90;;;35.07;;
8359;SDS011;4217;48.762;11.428;2022-12-18T00:25:11;51.83;;;36.97;;
8359;SDS011;4217;48.762;11.428;2022-12-18T00:35:13;46.57;;;34.53;;
8359;SDS011;4217;48.762;11.428;2022-12-18T00:45:14;46.33;;;33.33;;
8359;SDS011;4217;48.762;11.428;2022-12-18T00:55:16;55.03;;;37.87;;
8359;SDS011;4217;48.762;11.428;2022-12-18T01:05:20;52.00;;;37.73;;
8359;SDS011;4217;48.762;11.428;2022-12-18T01:15:22;47.43;;;32.53;;
8359;SDS011;4217;48.762;11.428;2022-12-18T01:25:23;49.40;;;33.47;;
8359;SDS011;4217;48.762;11.428;2022-12-18T01:35:25;43.10;;;30.70;;
8359;SDS011;4217;48.762;11.428;2022-12-18T01:45:28;42.27;;;30.73;;
8359;SDS011;4217;48.762;11.428;2022-12-18T01:55:32;44.77;;;31.10;;
8359;SDS011;4217;48.762;11.428;2022-12-18T02:05:46;41.57;;;31.60;;
8359;SDS011;4217;48.762;11.428;2022-12-18T02:16:05;41.77;;;30.20;;
8359;SDS011;4217;48.762;11.428;2022-12-18T02:26:30;43.23;;;29.67;;
8359;SDS011;4217;48.762;11.428;2022-12-18T02:36:55;39.53;;;29.80;;
8359;SDS011;4217;48.762;11.428;2022-12-18T02:47:01;40.07;;;30.57;;
8359;SDS011;4217;48.762;11.428;2022-12-18T02:57:11;37.43;;;29.13;;
8359;SDS011;4217;48.762;11.428;2022-12-18T03:07:21;39.57;;;28.37;;
8359;SDS011;4217;48.762;11.428;2022-12-18T03:17:31;38.03;;;27.57;;
8359;SDS011;4217;48.762;11.428;2022-12-18T03:27:35;33.63;;;24.07;;
8359;SDS011;4217;48.762;11.428;2022-12-18T03:37:43;35.50;;;25.57;;
8359;SDS011;4217;48.762;11.428;2022-12-18T03:58:11;33.67;;;25.67;;
8359;SDS011;4217;48.762;11.428;2022-12-18T04:08:26;31.47;;;24.47;;
8359;SDS011;4217;48.762;11.428;2022-12-18T04:18:37;33.27;;;26.67;;
8359;SDS011;4217;48.762;11.428;2022-12-18T04:28:39;36.60;;;26.03;;
8359;SDS011;4217;48.762;11.428;2022-12-18T04:38:41;28.03;;;22.80;;
8359;SDS011;4217;48.762;11.428;2022-12-18T04:48:46;31.27;;;23.93;;
8359;SDS011;4217;48.762;11.428;2022-12-18T04:58:48;30.27;;;23.40;;
8359;SDS011;4217;48.762;11.428;2022-12-18T05:08:49;30.10;;;24.13;;
8359;SDS011;4217;48.762;11.428;2022-12-18T05:18:51;30.87;;;23.23;;
8359;SDS011;4217;48.762;11.428;2022-12-18T05:28:52;27.17;;;22.10;;
8359;SDS011;4217;48.762;11.428;2022-12-18T05:38:54;27.73;;;22.70;;
8359;SDS011;4217;48.762;11.428;2022-12-18T05:48:58;32.97;;;24.50;;
8359;SDS011;4217;48.762;11.428;2022-12-18T05:59:01;31.43;;;24.83;;
8359;SDS011;4217;48.762;11.428;2022-12-18T06:09:03;31.43;;;23.73;;
8359;SDS011;4217;48.762;11.428;2022-12-18T06:19:13;25.30;;;21.07;;
8359;SDS011;4217;48.762;11.428;2022-12-18T06:29:16;26.03;;;20.90;;
8359;SDS011;4217;48.762;11.428;2022-12-18T06:39:18;24.70;;;21.60;;
8359;SDS011;4217;48.762;11.428;2022-12-18T06:49:20;28.37;;;22.40;;
8359;SDS011;4217;48.762;11.428;2022-12-18T06:59:27;27.87;;;22.73;;
8359;SDS011;4217;48.762;11.428;2022-12-18T07:09:29;29.07;;;23.00;;
8359;SDS011;4217;48.762;11.428;2022-12-18T07:19:30;25.63;;;22.27;;
8359;SDS011;4217;48.762;11.428;2022-12-18T07:29:32;27.60;;;22.70;;
8359;SDS011;4217;48.762;11.428;2022-12-18T07:39:34;27.40;;;22.73;;
8359;SDS011;4217;48.762;11.428;2022-12-18T07:49:35;28.03;;;22.87;;
8359;SDS011;4217;48.762;11.428;2022-12-18T07:59:37;27.90;;;21.77;;
8359;SDS011;4217;48.762;11.428;2022-12-18T08:09:39;27.07;;;22.27;;
8359;SDS011;4217;48.762;11.428;2022-12-18T08:19:40;26.57;;;22.83;;
8359;SDS011;4217;48.762;11.428;2022-12-18T08:29:42;26.47;;;23.07;;
8359;SDS011;4217;48.762;11.428;2022-12-18T08:39:45;24.87;;;21.30;;
8359;SDS011;4217;48.762;11.428;2022-12-18T08:49:47;22.47;;;20.10;;
8359;SDS011;4217;48.762;11.428;2022-12-18T08:59:48;21.57;;;19.30;;
8359;SDS011;4217;48.762;11.428;2022-12-18T09:09:50;21.03;;;18.93;;
8359;SDS011;4217;48.762;11.428;2022-12-18T09:19:52;22.07;;;19.77;;
8359;SDS011;4217;48.762;11.428;2022-12-18T09:29:53;21.03;;;18.83;;
8359;SDS011;4217;48.762;11.428;2022-12-18T09:39:55;21.93;;;19.53;;
8359;SDS011;4217;48.762;11.428;2022-12-18T09:50:01;20.80;;;18.60;;
8359;SDS011;4217;48.762;11.428;2022-12-18T10:10:32;20.73;;;18.63;;
8359;SDS011;4217;48.762;11.428;2022-12-18T10:20:48;19.87;;;17.77;;
8359;SDS011;4217;48.762;11.428;2022-12-18T10:30:53;20.03;;;18.03;;
8359;SDS011;4217;48.762;11.428;2022-12-18T10:41:02;20.73;;;18.93;;
8359;SDS011;4217;48.762;11.428;2022-12-18T10:51:07;20.50;;;18.80;;
8359;SDS011;4217;48.762;11.428;2022-12-18T11:01:14;20.17;;;18.47;;
8359;SDS011;4217;48.762;11.428;2022-12-18T11:11:21;20.63;;;18.90;;
8359;SDS011;4217;48.762;11.428;2022-12-18T11:21:24;21.37;;;19.53;;
8359;SDS011;4217;48.762;11.428;2022-12-18T11:31:27;21.13;;;19.33;;
8359;SDS011;4217;48.762;11.428;2022-12-18T12:43:51;21.03;;;19.07;;
8359;SDS011;4217;48.762;11.428;2022-12-18T12:53:57;20.43;;;18.60;;
8359;SDS011;4217;48.762;11.428;2022-12-18T13:04:03;22.43;;;20.43;;
8359;SDS011;4217;48.762;11.428;2022-12-18T13:14:12;20.20;;;18.30;;
8359;SDS011;4217;48.762;11.428;2022-12-18T13:24:27;19.97;;;17.97;;
8359;SDS011;4217;48.762;11.428;2022-12-18T13:34:31;21.77;;;19.97;;
8359;SDS011;4217;48.762;11.428;2022-12-18T13:44:35;19.77;;;17.87;;
8359;SDS011;4217;48.762;11.428;2022-12-18T13:54:41;19.00;;;17.20;;
8359;SDS011;4217;48.762;11.428;2022-12-18T14:04:47;20.03;;;17.87;;
8359;SDS011;4217;48.762;11.428;2022-12-18T14:14:52;19.33;;;17.43;;
8359;SDS011;4217;48.762;11.428;2022-12-18T14:25:10;20.60;;;18.37;;
8359;SDS011;4217;48.762;11.428;2022-12-18T14:35:17;19.87;;;17.60;;
8359;SDS011;4217;48.762;11.428;2022-12-18T14:55:53;17.93;;;16.13;;
8359;SDS011;4217;48.762;11.428;2022-12-18T15:05:56;18.97;;;16.87;;
8359;SDS011;4217;48.762;11.428;2022-12-18T15:16:00;19.50;;;17.50;;
8359;SDS011;4217;48.762;11.428;2022-12-18T15:36:11;19.40;;;16.97;;
8359;SDS011;4217;48.762;11.428;2022-12-18T15:46:17;18.20;;;16.30;;
8359;SDS011;4217;48.762;11.428;2022-12-18T15:56:20;20.50;;;18.30;;
8359;SDS011;4217;48.762;11.428;2022-12-18T16:06:40;20.17;;;18.03;;
8359;SDS011;4217;48.762;11.428;2022-12-18T16:17:03;19.17;;;17.27;;
8359;SDS011;4217;48.762;11.428;2022-12-18T16:27:07;21.27;;;18.63;;
8359;SDS011;4217;48.762;11.428;2022-12-18T16:37:09;21.43;;;19.17;;
8359;SDS011;4217;48.762;11.428;2022-12-18T16:47:12;21.53;;;18.93;;
8359;SDS011;4217;48.762;11.428;2022-12-18T16:57:17;20.03;;;18.03;;
8359;SDS011;4217;48.762;11.428;2022-12-18T17:07:21;21.37;;;19.13;;
8359;SDS011;4217;48.762;11.428;2022-12-18T17:17:23;20.60;;;18.40;;
8359;SDS011;4217;48.762;11.428;2022-12-18T17:27:24;24.17;;;20.63;;
8359;SDS011;4217;48.762;11.428;2022-12-18T17:37:26;21.50;;;19.27;;
8359;SDS011;4217;48.762;11.428;2022-12-18T17:47:28;23.27;;;20.60;;
8359;SDS011;4217;48.762;11.428;2022-12-18T17:57:29;23.57;;;21.17;;
8359;SDS011;4217;48.762;11.428;2022-12-18T18:07:31;22.83;;;20.43;;
8359;SDS011;4217;48.762;11.428;2022-12-18T18:17:32;25.87;;;23.10;;
8359;SDS011;4217;48.762;11.428;2022-12-18T18:27:34;23.60;;;21.10;;
8359;SDS011;4217;48.762;11.428;2022-12-18T18:37:39;24.50;;;21.67;;
8359;SDS011;4217;48.762;11.428;2022-12-18T18:47:41;24.00;;;21.30;;
8359;SDS011;4217;48.762;11.428;2022-12-18T18:57:43;22.70;;;20.30;;
8359;SDS011;4217;48.762;11.428;2022-12-18T19:07:46;25.70;;;21.87;;
8359;SDS011;4217;48.762;11.428;2022-12-18T19:17:47;24.87;;;22.27;;
8359;SDS011;4217;48.762;11.428;2022-12-18T19:27:49;24.30;;;21.67;;
8359;SDS011;4217;48.762;11.428;2022-12-18T19:37:50;26.50;;;23.03;;
8359;SDS011;4217;48.762;11.428;2022-12-18T19:47:52;26.57;;;24.00;;
8359;SDS011;4217;48.762;11.428;2022-12-18T19:57:53;26.00;;;23.27;;
8359;SDS011;4217;48.762;11.428;2022-12-18T20:07:57;24.97;;;22.33;;
8359;SDS011;4217;48.762;11.428;2022-12-18T20:17:58;26.90;;;24.07;;
8359;SDS011;4217;48.762;11.428;2022-12-18T20:28:00;27.90;;;25.17;;
8359;SDS011;4217;48.762;11.428;2022-12-18T20:38:01;27.10;;;24.40;;
8359;SDS011;4217;48.762;11.428;2022-12-18T20:48:04;27.70;;;24.77;;
8359;SDS011;4217;48.762;11.428;2022-12-18T20:58:06;27.97;;;25.10;;
8359;SDS011;4217;48.762;11.428;2022-12-18T21:08:08;27.10;;;24.30;;
8359;SDS011;4217;48.762;11.428;2022-12-18T21:18:12;31.93;;;28.67;;
8359;SDS011;4217;48.762;11.428;2022-12-18T21:28:15;30.13;;;27.03;;
8359;SDS011;4217;48.762;11.428;2022-12-18T21:38:17;32.10;;;28.90;;
8359;SDS011;4217;48.762;11.428;2022-12-18T21:48:18;32.40;;;28.90;;
8359;SDS011;4217;48.762;11.428;2022-12-18T21:58:20;33.50;;;30.20;;
8359;SDS011;4217;48.762;11.428;2022-12-18T22:08:21;33.43;;;30.13;;
8359;SDS011;4217;48.762;11.428;2022-12-18T22:18:23;33.63;;;30.43;;
8359;SDS011;4217;48.762;11.428;2022-12-18T22:28:24;34.93;;;31.87;;
8359;SDS011;4217;48.762;11.428;2022-12-18T22:38:45;35.27;;;31.87;;
8359;SDS011;4217;48.762;11.428;2022-12-18T22:48:47;36.67;;;33.07;;
8359;SDS011;4217;48.762;11.428;2022-12-18T22:58:50;36.53;;;33.00;;
8359;SDS011;4217;48.762;11.428;2022-12-18T23:08:55;34.70;;;31.30;;
8359;SDS011;4217;48.762;11.428;2022-12-18T23:18:58;32.67;;;29.67;;
8359;SDS011;4217;48.762;11.428;2022-12-18T23:29:00;33.90;;;30.70;;
8359;SDS011;4217;48.762;11.428;2022-12-18T23:39:01;34.30;;;30.93;;
8359;SDS011;4217;48.762;11.428;2022-12-18T23:49:03;33.80;;;30.77;;
8359;SDS011;4217;48.762;11.428;2022-12-18T23:59:06;34.00;;;31.10;;
